Latest Weather Observations for Sheoaks

IDV60801

Issued at 9:02 pm EDT Monday 26 January 2015 (issued every 30 minutes, with the page automatically refreshed every 10 minutes)

About weather observations | Map of weather stations | Latest weather observations for VIC | Other Formats
Station Details ID: 087168 Name: SHEOAKS Lat: -37.91 Lon: 144.13 Height: 236.7 m
Data from the previous 72 hours. | See also: Recent months at Sheoaks
Date/Time
EDT
Temp
°C
App
Temp
°C
Dew
Point
Rel
Hum
%
Delta-T
°C
Wind Press
QNH
hPa
Press
MSL
hPa
Rain
since 9 am
mm
Dir
 
Spd
km/h
Gust
km/h
Spd
kts
Gust
kts
26/09:00pm 12.7 10.0 5.8 63 3.3 SSE 9 15 5 8 1018.0 1017.3 0.0
26/08:30pm 13.5 10.1 5.7 59 3.7 SSE 13 19 7 10 1017.8 1017.1 0.0
26/08:00pm 14.4 10.5 5.5 55 4.3 SSE 15 22 8 12 1017.6 1016.9 0.0
26/07:30pm 15.6 11.3 5.2 50 5.0 SE 17 24 9 13 1017.3 1016.6 0.0
26/07:00pm 15.9 11.2 5.2 49 5.1 SE 19 28 10 15 1016.9 1016.2 0.0
26/06:30pm 15.9 11.4 6.1 52 4.8 SE 19 24 10 13 1016.6 1015.9 0.0
26/06:00pm 15.8 11.4 6.5 54 4.6 SSE 19 30 10 16 1016.6 1015.9 0.0
26/05:30pm 15.9 11.3 6.3 53 4.7 SSE 20 32 11 17 1016.5 1015.8 0.0
26/05:00pm 16.4 11.9 6.2 51 5.0 SSE 19 28 10 15 1016.5 1015.8 0.0
26/04:30pm 17.3 12.3 6.5 49 5.4 SE 22 32 12 17 1016.6 1015.9 0.0
26/04:00pm 16.9 12.5 6.7 51 5.1 SSE 19 30 10 16 1016.7 1016.0 0.0
26/03:30pm 17.0 12.5 6.8 51 5.1 SSE 20 33 11 18 1016.6 1015.9 0.0
26/03:00pm 17.6 13.1 6.2 47 5.7 SSE 19 30 10 16 1016.5 1015.8 0.0
26/02:30pm 17.1 13.0 6.0 48 5.5 SE 17 30 9 16 1016.4 1015.7 0.0
26/02:00pm 19.1 14.8 6.9 45 6.2 SSE 19 28 10 15 1016.7 1016.0 0.0
26/01:30pm 16.9 13.0 5.5 47 5.6 S 15 24 8 13 1016.8 1016.1 0.0
26/01:00pm 17.1 13.3 6.0 48 5.5 SSE 15 26 8 14 1016.9 1016.2 0.0
26/12:30pm 17.5 13.7 4.1 41 6.4 SSE 13 22 7 12 1016.9 1016.2 0.0
26/12:00pm 18.3 15.4 4.8 41 6.5 SSE 9 17 5 9 1017.0 1016.3 0.0
26/11:30am 16.0 12.0 5.0 48 5.3 S 15 20 8 11 1017.3 1016.6 0.0
26/11:00am 15.5 11.5 5.1 50 5.0 SSW 15 22 8 12 1017.4 1016.7 0.0
26/10:30am 14.7 11.3 6.0 56 4.2 SSW 13 24 7 13 1017.4 1016.7 0.0
26/10:00am 15.0 12.6 6.8 58 4.0 SSW 9 17 5 9 1017.2 1016.5 0.0
26/09:30am 13.9 11.0 6.5 61 3.6 SSW 11 19 6 10 1017.4 1016.7 0.0
26/09:00am 12.9 10.5 6.9 67 2.9 WSW 9 17 5 9 1017.4 1016.7 0.0
26/08:30am 11.9 9.7 8.0 77 1.9 WSW 9 17 5 9 1017.0 1016.3 0.0
26/08:00am 10.4 7.3 7.3 81 1.5 W 13 19 7 10 1016.7 1016.0 0.0
26/07:30am 9.0 6.4 7.8 92 0.6 W 11 15 6 8 1016.4 1015.7 0.0
26/07:00am 5.7 3.2 4.7 93 0.4 N 7 9 4 5 1016.0 1015.3 0.0
26/06:30am 5.8 3.3 4.8 93 0.4 N 7 7 4 4 1015.6 1014.9 0.0
26/06:00am 6.1 3.6 4.9 92 0.5 N 7 7 4 4 1015.2 1014.5 0.0
26/05:30am 6.3 3.8 4.9 91 0.6 N 7 7 4 4 1014.8 1014.1 0.0
26/05:00am 6.9 4.7 5.2 89 0.8 N 6 6 3 3 1014.8 1014.1 0.0
26/04:30am 7.2 5.0 5.5 89 0.8 NNW 6 7 3 4 1014.7 1014.0 0.0
26/04:00am 7.4 5.1 5.7 89 0.8 NNW 7 9 4 5 1014.4 1013.7 0.0
26/03:30am 7.1 5.3 5.4 89 0.8 NW 4 6 2 3 1014.3 1013.6 0.0
26/03:00am 6.5 4.2 4.8 89 0.8 NW 6 9 3 5 1014.3 1013.6 0.0
26/02:30am 6.3 3.8 4.6 89 0.7 NW 7 11 4 6 1014.2 1013.5 0.0
26/02:00am 6.5 4.2 4.7 88 0.8 NNW 6 9 3 5 1014.2 1013.5 0.0
26/01:30am 6.6 4.1 4.6 87 0.9 NNW 7 9 4 5 1014.1 1013.4 0.0
26/01:00am 8.1 6.2 4.9 80 1.4 W 4 6 2 3 1014.1 1013.4 0.0
26/12:30am 8.9 6.7 5.1 77 1.7 WNW 6 7 3 4 1013.9 1013.2 0.0
26/12:00am 9.2 7.0 5.2 76 1.8 WNW 6 7 3 4 1014.0 1013.3 0.0
 
Date/Time
EDT
Temp
°C
App
Temp
°C
Dew
Point
Rel
Hum
%
Delta-T
°C
Wind Press
QNH
hPa
Press
MSL
hPa
Rain
since 9 am
mm
Dir
 
Spd
km/h
Gust
km/h
Spd
kts
Gust
kts
25/11:30pm 10.6 7.9 5.4 70 2.4 W 9 13 5 7 1014.0 1013.3 0.0
25/11:00pm 11.0 8.3 5.7 70 2.5 WSW 9 15 5 8 1014.0 1013.3 0.0
25/10:30pm 11.0 8.6 5.3 68 2.6 W 7 11 4 6 1014.0 1013.3 0.0
25/10:00pm 11.6 9.2 5.3 65 2.9 W 7 11 4 6 1013.9 1013.2 0.0
25/09:30pm 12.3 9.1 5.2 62 3.3 W 11 19 6 10 1013.4 1012.7 0.0
25/09:00pm 13.1 10.4 5.5 60 3.6 WSW 9 17 5 9 1013.2 1012.5 0.0
25/08:30pm 13.4 9.4 6.5 63 3.3 SW 17 24 9 13 1012.9 1012.2 0.0
25/08:00pm 14.9 10.0 4.9 51 4.7 WSW 20 35 11 19 1012.5 1011.8 0.0
25/07:30pm 14.8 10.1 5.1 52 4.6 SW 19 28 10 15 1012.0 1011.2 0.0
25/07:00pm 15.9 10.5 4.6 47 5.4 SW 22 37 12 20 1011.6 1010.8 0.0
25/06:30pm 16.9 11.6 4.9 45 5.8 SW 22 41 12 22 1011.0 1010.3 0.0
25/06:00pm 16.9 10.5 3.2 40 6.4 WSW 26 46 14 25 1010.7 1010.0 0.0
25/05:30pm 17.0 12.1 4.0 42 6.2 WSW 19 33 10 18 1010.4 1009.7 0.0
25/05:00pm 18.4 13.7 5.9 44 6.2 WSW 20 33 11 18 1010.2 1009.5 0.0
25/04:30pm 16.0 10.3 5.0 48 5.3 WSW 24 48 13 26 1010.3 1009.6 0.0
25/04:00pm 17.8 11.4 5.1 43 6.2 SW 28 50 15 27 1009.9 1009.2 0.0
25/03:53pm 18.3 12.1 6.2 45 6.0 WSW 28 50 15 27 1009.8 1009.1 0.0
25/03:30pm 17.2 12.5 5.2 45 5.8 WSW 19 37 10 20 1009.7 1009.0 0.0
25/03:00pm 17.2 10.9 3.5 40 6.4 WSW 26 39 14 21 1009.5 1008.8 0.0
25/02:30pm 17.9 12.2 4.8 42 6.3 WSW 24 39 13 21 1009.4 1008.7 0.0
25/02:00pm 18.1 11.9 4.3 40 6.6 W 26 39 14 21 1009.1 1008.4 0.0
25/01:30pm 17.4 11.7 5.0 44 6.0 W 24 39 13 21 1009.2 1008.5 0.0
25/01:00pm 16.5 10.5 5.2 47 5.5 W 26 39 14 21 1009.1 1008.4 0.0
25/12:30pm 16.3 10.6 4.7 46 5.5 W 24 37 13 20 1009.0 1008.3 0.0
25/12:00pm 16.3 10.6 5.0 47 5.4 W 24 39 13 21 1008.9 1008.2 0.0
25/11:30am 15.3 9.9 6.3 55 4.4 WSW 24 44 13 24 1009.1 1008.4 0.0
25/11:00am 15.1 10.3 5.6 53 4.6 W 20 35 11 19 1008.9 1008.2 0.0
25/10:30am 14.4 9.6 7.5 63 3.4 W 22 35 12 19 1008.8 1008.1 0.0
25/10:00am 13.6 9.0 8.0 69 2.8 W 22 33 12 18 1008.5 1007.8 0.0
25/09:30am 13.6 8.9 7.8 68 2.9 W 22 32 12 17 1008.2 1007.4 0.0
25/09:00am 13.6 9.8 8.9 73 2.4 W 19 28 10 15 1007.6 1006.8 2.8
25/08:30am 13.0 9.2 9.1 77 2.0 W 19 30 10 16 1007.4 1006.6 2.8
25/08:00am 12.4 10.0 10.1 86 1.2 WNW 13 22 7 12 1007.0 1006.3 2.8
25/07:30am 12.3 9.1 9.9 85 1.2 W 17 28 9 15 1006.7 1006.0 2.6
25/07:00am 11.9 9.0 9.5 85 1.2 WNW 15 24 8 13 1006.1 1005.4 2.6
25/06:30am 12.0 8.7 9.7 86 1.2 WNW 17 26 9 14 1005.6 1004.9 2.6
25/06:00am 12.1 9.4 10.5 90 0.8 WNW 15 20 8 11 1005.2 1004.5 2.6
25/05:30am 12.1 9.1 10.8 92 0.7 W 17 30 9 16 1004.8 1004.0 2.6
25/05:00am 12.3 8.9 11.4 94 0.5 W 20 33 11 18 1004.9 1004.2 2.6
25/04:30am 12.6 9.5 11.5 93 0.6 WSW 19 32 10 17 1004.5 1003.7 2.6
25/04:00am 12.9 8.8 11.3 90 0.9 W 24 39 13 21 1004.3 1003.5 1.0
25/03:30am 15.6 12.6 10.6 72 2.7 W 17 28 9 15 1003.6 1002.8 0.0
25/03:00am 14.7 13.2 10.7 77 2.1 NW 9 19 5 10 1003.5 1002.7 0.0
25/02:30am 14.0 12.9 10.6 80 1.8 NNW 7 11 4 6 1003.5 1002.7 0.0
25/02:00am 14.2 13.1 10.6 79 1.9 NNW 7 13 4 7 1003.5 1002.7 0.0
25/01:30am 14.6 12.7 10.6 77 2.1 N 11 13 6 7 1003.8 1003.0 0.0
25/01:00am 14.9 13.9 10.9 77 2.2 N 7 9 4 5 1004.4 1003.6 0.0
25/12:30am 14.9 14.0 10.7 76 2.2 N 6 9 3 5 1004.7 1003.9 0.0
25/12:00am 14.7 13.9 10.9 78 2.0 N 6 7 3 4 1004.9 1004.2 0.0
 
Date/Time
EDT
Temp
°C
App
Temp
°C
Dew
Point
Rel
Hum
%
Delta-T
°C
Wind Press
QNH
hPa
Press
MSL
hPa
Rain
since 9 am
mm
Dir
 
Spd
km/h
Gust
km/h
Spd
kts
Gust
kts
24/11:30pm 14.2 13.8 11.0 81 1.7 N 4 6 2 3 1004.9 1004.2 0.0
24/11:00pm 14.9 15.1 10.7 76 2.3 CALM 0 2 0 1 1005.0 1004.3 0.0
24/10:30pm 15.0 14.1 10.6 75 2.3 E 6 7 3 4 1004.9 1004.2 0.0
24/10:00pm 15.2 14.1 10.6 74 2.5 E 7 9 4 5 1004.7 1003.9 0.0
24/09:30pm 15.9 14.6 11.1 73 2.6 ESE 9 13 5 7 1004.3 1003.5 0.0
24/09:00pm 16.6 14.9 11.3 71 2.9 ESE 11 15 6 8 1004.2 1003.4 0.0
24/08:30pm 17.5 15.2 11.8 69 3.2 ESE 15 20 8 11 1003.9 1003.1 0.0
24/08:00pm 18.6 15.7 12.4 67 3.5 ESE 19 24 10 13 1003.5 1002.7 0.0
24/07:30pm 20.1 17.3 12.6 62 4.3 ESE 19 22 10 12 1002.9 1002.1 0.0
24/07:00pm 21.4 18.6 12.5 57 5.1 ESE 19 22 10 12 1002.5 1001.8 0.0
24/06:30pm 22.4 19.3 12.1 52 5.9 ESE 20 24 11 13 1002.0 1001.3 0.0
24/06:00pm 23.8 21.0 11.5 46 7.0 SE 17 22 9 12 1001.9 1001.2 0.0
24/05:30pm 24.7 21.5 12.0 45 7.3 SE 20 28 11 15 1002.1 1001.4 0.0
24/05:00pm 27.6 26.0 11.6 37 9.3 WSW 11 22 6 12 1002.0 1001.3 0.0
24/04:30pm 28.7 25.1 6.7 25 11.8 SW 15 24 8 13 1001.9 1001.2 0.0
24/04:00pm 27.8 23.4 6.6 26 11.4 W 19 30 10 16 1002.3 1001.6 0.0
24/03:30pm 27.7 24.2 7.0 27 11.1 WNW 15 24 8 13 1002.6 1001.9 0.0
24/03:00pm 27.2 24.6 7.6 29 10.6 W 11 22 6 12 1003.1 1002.3 0.0
24/02:30pm 26.9 25.3 8.8 32 10.0 WNW 7 22 4 12 1003.6 1002.8 0.0
24/02:00pm 26.2 24.3 9.1 34 9.5 WSW 9 24 5 13 1004.0 1003.2 0.0
24/01:30pm 25.1 23.3 10.9 41 8.0 WNW 11 24 6 13 1004.4 1003.6 0.0
24/01:00pm 24.7 22.4 10.6 41 8.0 W 13 24 7 13 1004.7 1003.9 0.0
24/12:30pm 24.4 22.3 11.0 43 7.6 WSW 13 26 7 14 1004.9 1004.2 0.0
24/12:00pm 23.1 21.4 11.2 47 6.7 SW 11 20 6 11 1005.0 1004.3 0.0
24/11:30am 22.3 20.5 12.0 52 5.9 W 13 20 7 11 1005.3 1004.6 0.0
24/11:00am 22.0 19.8 12.0 53 5.7 W 15 24 8 13 1005.6 1004.9 0.0
24/10:30am 21.1 19.9 11.7 55 5.3 NW 9 19 5 10 1005.8 1005.1 0.0
24/10:00am 19.4 18.8 11.7 61 4.3 N 6 11 3 6 1006.2 1005.5 0.0
24/09:30am 18.2 17.6 12.2 68 3.4 NE 7 13 4 7 1006.4 1005.7 0.0
24/09:00am 15.8 15.3 12.0 78 2.1 N 6 9 3 5 1006.5 1005.8 0.0
24/08:30am 14.1 13.8 11.4 84 1.5 NNW 4 6 2 3 1006.6 1005.9 0.0
24/08:00am 12.3 11.7 10.5 89 0.9 NNW 4 6 2 3 1006.5 1005.8 0.0
24/07:30am 11.0 9.7 9.9 93 0.6 N 7 9 4 5 1006.3 1005.6 0.0
24/07:00am 9.5 7.9 8.6 94 0.4 N 7 9 4 5 1006.2 1005.5 0.0
24/06:30am 9.3 7.6 8.2 93 0.5 N 7 7 4 4 1006.1 1005.4 0.0
24/06:00am 9.5 8.0 8.4 93 0.5 N 6 6 3 3 1006.1 1005.4 0.0
24/05:30am 9.6 8.5 8.4 92 0.6 NNE 4 6 2 3 1006.0 1005.3 0.0
24/05:00am 10.0 9.0 8.8 92 0.6 NNE 4 6 2 3 1006.1 1005.4 0.0
24/04:30am 10.2 8.8 8.8 91 0.7 N 6 6 3 3 1006.2 1005.5 0.0
24/04:00am 10.8 9.4 8.9 88 1.0 NNE 6 7 3 4 1006.1 1005.4 0.0
24/03:30am 11.4 9.9 9.3 87 1.1 NE 7 7 4 4 1006.8 1006.1 0.0
24/03:00am 12.2 11.5 9.9 86 1.2 NE 4 6 2 3 1006.7 1006.0 0.0
24/02:30am 12.3 11.1 9.5 83 1.4 E 6 7 3 4 1007.2 1006.4 0.0
24/02:00am 13.0 11.7 10.0 82 1.6 E 7 9 4 5 1007.7 1006.9 0.0
24/01:30am 13.3 12.3 10.3 82 1.6 E 6 7 3 4 1008.2 1007.4 0.0
24/01:00am 13.8 12.6 10.2 79 1.9 E 7 13 4 7 1008.6 1007.9 0.0
24/12:30am 15.2 13.0 10.8 75 2.4 ESE 13 17 7 9 1008.8 1008.1 0.0
24/12:00am 15.3 13.5 10.9 75 2.4 ESE 11 17 6 9 1008.9 1008.2 0.0
 
Date/Time
EDT
Temp
°C
App
Temp
°C
Dew
Point
Rel
Hum
%
Delta-T
°C
Wind Press
QNH
hPa
Press
MSL
hPa
Rain
since 9 am
mm
Dir
 
Spd
km/h
Gust
km/h
Spd
kts
Gust
kts
23/11:30pm 15.4 12.9 11.2 76 2.3 ESE 15 20 8 11 1009.2 1008.5 0.0
23/11:00pm 15.5 13.4 11.3 76 2.3 ESE 13 20 7 11 1009.4 1008.7 0.0
23/10:30pm 15.5 12.7 11.3 76 2.3 ESE 17 22 9 12 1009.6 1008.9 0.0
23/10:00pm 15.6 13.2 11.4 76 2.3 SE 15 22 8 12 1009.5 1008.8 0.0
23/09:30pm 15.7 12.6 11.7 77 2.2 ESE 19 26 10 14 1009.4 1008.7 0.0

Other Formats:

Comma delimited format used in spreadsheet applications
http://www.bom.gov.au/fwo/IDV60801/IDV60801.94863.axf

JavaScript Object Notation format (JSON) in row-major order
http://www.bom.gov.au/fwo/IDV60801/IDV60801.94863.json